Pagrindinis puslapis
METAR-TAF:

METAR-TAF

Oro uostai :

Truchiljas, Peru

platuma: 08-06S, ilguma: 079-02W, Aukštis: 26 m

Dabartinis oras

Ataskaita buvo paskelbta 1 valandą ir 6 minutes, ne 01:00 UTC
Vėjas 9 kt iš Pietų/Pietryčių
Temperatūra 19°C
Drėgmė 88%
Slėgis 1013 hPa
Matomumas: 3800 m
Apsiniaukę ne aukštis 700 ft
rūkana

METAR: SPRU 170100Z 16009KT 3800 BR OVC007 19/17 Q1013 RMK PP000

Laikas: 21:06 (02:06 UTC)

Prognozė

Ataskaita buvo paskelbta 3 valandos ir 6 minutes, ne 23:00 UTC
Prognozė galioja nuo 17 metu 00 UTC su 17 metu 24 UTC
Vėjas 12 kt iš Pietų/Pietryčių
Matomumas: 4000 m
Apsiniaukę ne aukštis 500 ft
rūkana
Nuo 17 metu 1030 UTC
Vėjas 6 kt iš Pietų/Pietryčių
Matomumas: 2500 m
Apsiniaukę ne aukštis 200 ft
rūkana
Tapsmas
nuo 17 metu 16 UTC su 17 metu 18 UTC
Matomumas: 6000 m
Su prošvaistėmis ne aukštis 800 ft
Apsiniaukę ne aukštis 1000 ft

TAF: SPRU 162300Z 1700/1724 16012KT 4000 BR OVC005 TX22/1619Z TN18/1711Z FM171030 16006KT 2500 BR OVC002 BECMG 1716/1718 6000 BKN008 OVC010

Orai ataskaitas ir orų prognozės (METAR, TAF).

turimą stotys yra geltonos ir raudonos taškus žemėlapyje.

Perkelti pele per norėdami pamatyti stoties vardą.

Tada spustelėkite, norėdami matyti oro stebėjimo ir prognozės.

Norėdami pakeisti žemėlapį: spustelėkite ant žalios mygtukų su juodo kryžiaus žemyn,; žalią mygtuką su brūkšneliu, jei norite nutolinti; arba žalių rodyklių gretimoms žemėlapius.


METAR-TAF: